sensor_id;sensor_type;location;lat;lon;timestamp;pressure;altitude;pressure_sealevel;temperature;humidity
76229;BME280;65021;53.174;18.160;2024-03-06T00:02:15;101497.95;;;4.05;87.17
76229;BME280;65021;53.174;18.160;2024-03-06T00:04:41;101500.23;;;4.06;87.16
76229;BME280;65021;53.174;18.160;2024-03-06T00:07:08;101505.63;;;4.06;87.17
76229;BME280;65021;53.174;18.160;2024-03-06T00:09:35;101505.72;;;4.07;87.06
76229;BME280;65021;53.174;18.160;2024-03-06T00:12:03;101509.39;;;4.08;86.81
76229;BME280;65021;53.174;18.160;2024-03-06T00:14:30;101513.09;;;4.08;86.88
76229;BME280;65021;53.174;18.160;2024-03-06T00:16:57;101515.15;;;4.08;86.88
76229;BME280;65021;53.174;18.160;2024-03-06T00:19:24;101513.86;;;4.09;86.91
76229;BME280;65021;53.174;18.160;2024-03-06T00:21:50;101514.96;;;4.10;86.94
76229;BME280;65021;53.174;18.160;2024-03-06T00:24:17;101519.42;;;4.11;86.89
76229;BME280;65021;53.174;18.160;2024-03-06T00:26:44;101522.26;;;4.11;87.03
76229;BME280;65021;53.174;18.160;2024-03-06T00:29:11;101522.06;;;4.11;86.93
76229;BME280;65021;53.174;18.160;2024-03-06T00:31:45;101521.63;;;4.12;86.71
76229;BME280;65021;53.174;18.160;2024-03-06T00:34:13;101523.21;;;4.12;86.49
76229;BME280;65021;53.174;18.160;2024-03-06T00:36:43;101523.25;;;4.12;86.74
76229;BME280;65021;53.174;18.160;2024-03-06T00:39:10;101525.64;;;4.12;86.94
76229;BME280;65021;53.174;18.160;2024-03-06T00:41:37;101525.13;;;4.11;86.75
76229;BME280;65021;53.174;18.160;2024-03-06T00:44:05;101525.26;;;4.12;86.78
76229;BME280;65021;53.174;18.160;2024-03-06T00:46:32;101529.95;;;4.13;86.82
76229;BME280;65021;53.174;18.160;2024-03-06T00:48:59;101530.56;;;4.13;86.66
76229;BME280;65021;53.174;18.160;2024-03-06T00:51:25;101531.74;;;4.12;86.82
76229;BME280;65021;53.174;18.160;2024-03-06T00:53:52;101534.98;;;4.12;86.88
76229;BME280;65021;53.174;18.160;2024-03-06T00:56:19;101534.26;;;4.12;86.80
76229;BME280;65021;53.174;18.160;2024-03-06T00:58:46;101541.08;;;4.12;86.79
76229;BME280;65021;53.174;18.160;2024-03-06T01:01:15;101537.75;;;4.11;86.79
76229;BME280;65021;53.174;18.160;2024-03-06T01:03:42;101538.90;;;4.12;86.89
76229;BME280;65021;53.174;18.160;2024-03-06T01:06:09;101538.60;;;4.13;86.72
76229;BME280;65021;53.174;18.160;2024-03-06T01:08:36;101539.13;;;4.14;86.88
76229;BME280;65021;53.174;18.160;2024-03-06T01:11:03;101544.87;;;4.15;86.67
76229;BME280;65021;53.174;18.160;2024-03-06T01:13:31;101552.89;;;4.16;86.60
76229;BME280;65021;53.174;18.160;2024-03-06T01:15:58;101551.09;;;4.16;86.41
76229;BME280;65021;53.174;18.160;2024-03-06T01:18:24;101555.55;;;4.15;86.44
76229;BME280;65021;53.174;18.160;2024-03-06T01:20:51;101558.55;;;4.16;86.63
76229;BME280;65021;53.174;18.160;2024-03-06T01:23:18;101556.54;;;4.16;86.72
76229;BME280;65021;53.174;18.160;2024-03-06T01:25:45;101558.36;;;4.16;86.66
76229;BME280;65021;53.174;18.160;2024-03-06T01:28:11;101559.89;;;4.16;86.89
76229;BME280;65021;53.174;18.160;2024-03-06T01:30:39;101560.29;;;4.16;86.85
76229;BME280;65021;53.174;18.160;2024-03-06T01:33:06;101561.33;;;4.17;86.44
76229;BME280;65021;53.174;18.160;2024-03-06T01:35:32;101561.62;;;4.19;86.55
76229;BME280;65021;53.174;18.160;2024-03-06T01:37:59;101561.56;;;4.21;86.77
76229;BME280;65021;53.174;18.160;2024-03-06T01:40:27;101564.12;;;4.21;86.71
76229;BME280;65021;53.174;18.160;2024-03-06T01:42:56;101567.54;;;4.21;86.69
76229;BME280;65021;53.174;18.160;2024-03-06T01:45:22;101562.02;;;4.20;86.54
76229;BME280;65021;53.174;18.160;2024-03-06T01:47:49;101566.27;;;4.20;86.56
76229;BME280;65021;53.174;18.160;2024-03-06T01:50:17;101568.27;;;4.19;86.33
76229;BME280;65021;53.174;18.160;2024-03-06T01:52:45;101570.86;;;4.19;86.70
76229;BME280;65021;53.174;18.160;2024-03-06T01:55:13;101570.79;;;4.19;86.38
76229;BME280;65021;53.174;18.160;2024-03-06T01:57:41;101571.27;;;4.21;86.63
76229;BME280;65021;53.174;18.160;2024-03-06T02:00:09;101569.36;;;4.21;86.70
76229;BME280;65021;53.174;18.160;2024-03-06T02:02:41;101572.35;;;4.22;86.64
76229;BME280;65021;53.174;18.160;2024-03-06T02:05:09;101572.89;;;4.23;86.54
76229;BME280;65021;53.174;18.160;2024-03-06T02:07:38;101570.06;;;4.24;86.55
76229;BME280;65021;53.174;18.160;2024-03-06T02:10:07;101563.32;;;4.23;86.69
76229;BME280;65021;53.174;18.160;2024-03-06T02:12:36;101566.11;;;4.20;86.78
76229;BME280;65021;53.174;18.160;2024-03-06T02:15:03;101563.48;;;4.16;86.76
76229;BME280;65021;53.174;18.160;2024-03-06T02:17:30;101562.52;;;4.15;86.75
76229;BME280;65021;53.174;18.160;2024-03-06T02:19:57;101571.30;;;4.16;86.75
76229;BME280;65021;53.174;18.160;2024-03-06T02:22:25;101574.91;;;4.17;86.81
76229;BME280;65021;53.174;18.160;2024-03-06T02:24:51;101574.25;;;4.19;86.88
76229;BME280;65021;53.174;18.160;2024-03-06T02:27:18;101572.73;;;4.21;86.82
76229;BME280;65021;53.174;18.160;2024-03-06T02:29:45;101573.14;;;4.22;86.80
76229;BME280;65021;53.174;18.160;2024-03-06T02:32:14;101574.86;;;4.23;86.88
76229;BME280;65021;53.174;18.160;2024-03-06T02:34:44;101569.78;;;4.23;86.65
76229;BME280;65021;53.174;18.160;2024-03-06T02:37:10;101570.52;;;4.23;86.71
76229;BME280;65021;53.174;18.160;2024-03-06T02:39:37;101566.97;;;4.22;86.95
76229;BME280;65021;53.174;18.160;2024-03-06T02:42:04;101568.60;;;4.23;86.70
76229;BME280;65021;53.174;18.160;2024-03-06T02:44:31;101573.36;;;4.23;86.90
76229;BME280;65021;53.174;18.160;2024-03-06T02:46:58;101569.95;;;4.25;86.72
76229;BME280;65021;53.174;18.160;2024-03-06T02:49:25;101572.90;;;4.24;87.07
76229;BME280;65021;53.174;18.160;2024-03-06T02:51:51;101576.11;;;4.23;86.90
76229;BME280;65021;53.174;18.160;2024-03-06T02:54:18;101573.39;;;4.23;86.79
76229;BME280;65021;53.174;18.160;2024-03-06T02:56:45;101576.69;;;4.23;86.85
76229;BME280;65021;53.174;18.160;2024-03-06T02:59:12;101577.44;;;4.22;87.07
76229;BME280;65021;53.174;18.160;2024-03-06T03:01:40;101576.88;;;4.22;87.13
76229;BME280;65021;53.174;18.160;2024-03-06T03:04:07;101577.82;;;4.22;87.05
76229;BME280;65021;53.174;18.160;2024-03-06T03:06:34;101578.05;;;4.21;87.04
76229;BME280;65021;53.174;18.160;2024-03-06T03:09:01;101582.64;;;4.23;87.08
76229;BME280;65021;53.174;18.160;2024-03-06T03:11:30;101583.36;;;4.24;87.17
76229;BME280;65021;53.174;18.160;2024-03-06T03:13:58;101585.70;;;4.26;87.33
76229;BME280;65021;53.174;18.160;2024-03-06T03:16:25;101585.05;;;4.27;87.30
76229;BME280;65021;53.174;18.160;2024-03-06T03:18:51;101586.09;;;4.28;87.18
76229;BME280;65021;53.174;18.160;2024-03-06T03:21:18;101584.23;;;4.29;87.17
76229;BME280;65021;53.174;18.160;2024-03-06T03:23:45;101581.26;;;4.30;87.11
76229;BME280;65021;53.174;18.160;2024-03-06T03:26:12;101588.58;;;4.30;87.18
76229;BME280;65021;53.174;18.160;2024-03-06T03:28:39;101589.86;;;4.31;87.05
76229;BME280;65021;53.174;18.160;2024-03-06T03:31:07;101589.03;;;4.31;87.18
76229;BME280;65021;53.174;18.160;2024-03-06T03:33:44;101591.08;;;4.31;86.96
76229;BME280;65021;53.174;18.160;2024-03-06T03:36:10;101584.23;;;4.31;87.22
76229;BME280;65021;53.174;18.160;2024-03-06T03:38:38;101589.25;;;4.30;87.06
76229;BME280;65021;53.174;18.160;2024-03-06T03:41:11;101586.22;;;4.30;87.16
76229;BME280;65021;53.174;18.160;2024-03-06T03:43:42;101584.28;;;4.29;87.23
76229;BME280;65021;53.174;18.160;2024-03-06T03:46:09;101589.86;;;4.28;87.20
76229;BME280;65021;53.174;18.160;2024-03-06T03:48:37;101589.95;;;4.29;87.49
76229;BME280;65021;53.174;18.160;2024-03-06T03:51:06;101589.29;;;4.29;87.38
76229;BME280;65021;53.174;18.160;2024-03-06T03:53:33;101592.86;;;4.28;87.47
76229;BME280;65021;53.174;18.160;2024-03-06T03:56:01;101591.41;;;4.29;87.39
76229;BME280;65021;53.174;18.160;2024-03-06T03:58:28;101595.33;;;4.31;87.35
76229;BME280;65021;53.174;18.160;2024-03-06T04:00:54;101597.48;;;4.32;87.37
76229;BME280;65021;53.174;18.160;2024-03-06T04:03:22;101598.52;;;4.33;87.55
76229;BME280;65021;53.174;18.160;2024-03-06T04:05:50;101599.97;;;4.33;87.55
76229;BME280;65021;53.174;18.160;2024-03-06T04:08:17;101603.01;;;4.34;87.58
76229;BME280;65021;53.174;18.160;2024-03-06T04:10:44;101603.13;;;4.34;87.42
76229;BME280;65021;53.174;18.160;2024-03-06T04:13:14;101607.39;;;4.35;87.49
76229;BME280;65021;53.174;18.160;2024-03-06T04:15:41;101607.67;;;4.36;87.35
76229;BME280;65021;53.174;18.160;2024-03-06T04:18:08;101606.70;;;4.37;87.50
76229;BME280;65021;53.174;18.160;2024-03-06T04:20:35;101602.58;;;4.37;87.45
76229;BME280;65021;53.174;18.160;2024-03-06T04:23:01;101600.97;;;4.38;87.56
76229;BME280;65021;53.174;18.160;2024-03-06T04:25:28;101602.69;;;4.39;87.65
76229;BME280;65021;53.174;18.160;2024-03-06T04:27:55;101600.17;;;4.40;87.67
76229;BME280;65021;53.174;18.160;2024-03-06T04:30:22;101595.26;;;4.41;87.44
76229;BME280;65021;53.174;18.160;2024-03-06T04:32:49;101590.93;;;4.42;87.71
76229;BME280;65021;53.174;18.160;2024-03-06T04:35:16;101595.02;;;4.42;87.60
76229;BME280;65021;53.174;18.160;2024-03-06T04:37:43;101591.56;;;4.42;87.60
76229;BME280;65021;53.174;18.160;2024-03-06T04:40:11;101589.84;;;4.42;87.63
76229;BME280;65021;53.174;18.160;2024-03-06T04:42:38;101594.73;;;4.43;87.68
76229;BME280;65021;53.174;18.160;2024-03-06T04:45:12;101594.55;;;4.44;87.59
76229;BME280;65021;53.174;18.160;2024-03-06T04:47:39;101596.91;;;4.46;87.79
76229;BME280;65021;53.174;18.160;2024-03-06T04:50:09;101593.92;;;4.48;87.58
76229;BME280;65021;53.174;18.160;2024-03-06T04:52:37;101595.72;;;4.50;87.62
76229;BME280;65021;53.174;18.160;2024-03-06T04:55:05;101598.09;;;4.52;87.68
76229;BME280;65021;53.174;18.160;2024-03-06T04:57:34;101602.09;;;4.53;87.50
76229;BME280;65021;53.174;18.160;2024-03-06T05:00:00;101603.26;;;4.55;87.88
76229;BME280;65021;53.174;18.160;2024-03-06T05:02:32;101606.92;;;4.56;87.87
76229;BME280;65021;53.174;18.160;2024-03-06T05:05:00;101603.98;;;4.58;87.53
76229;BME280;65021;53.174;18.160;2024-03-06T05:07:28;101611.04;;;4.59;87.62
76229;BME280;65021;53.174;18.160;2024-03-06T05:09:56;101611.16;;;4.61;87.76
76229;BME280;65021;53.174;18.160;2024-03-06T05:12:26;101612.72;;;4.62;87.65
76229;BME280;65021;53.174;18.160;2024-03-06T05:14:54;101614.02;;;4.63;87.60
76229;BME280;65021;53.174;18.160;2024-03-06T05:17:21;101617.38;;;4.65;87.81
76229;BME280;65021;53.174;18.160;2024-03-06T05:19:48;101622.95;;;4.66;87.69
76229;BME280;65021;53.174;18.160;2024-03-06T05:22:16;101623.73;;;4.69;87.88
76229;BME280;65021;53.174;18.160;2024-03-06T05:24:43;101630.60;;;4.71;87.76
76229;BME280;65021;53.174;18.160;2024-03-06T05:27:10;101629.76;;;4.72;87.56
76229;BME280;65021;53.174;18.160;2024-03-06T05:29:39;101631.25;;;4.73;87.62
76229;BME280;65021;53.174;18.160;2024-03-06T05:32:06;101635.12;;;4.73;87.74
76229;BME280;65021;53.174;18.160;2024-03-06T05:34:36;101636.59;;;4.74;87.82
76229;BME280;65021;53.174;18.160;2024-03-06T05:37:02;101639.21;;;4.75;87.86
76229;BME280;65021;53.174;18.160;2024-03-06T05:39:32;101640.83;;;4.75;87.79
76229;BME280;65021;53.174;18.160;2024-03-06T05:42:00;101645.00;;;4.76;87.97
76229;BME280;65021;53.174;18.160;2024-03-06T05:44:31;101651.08;;;4.77;87.91
76229;BME280;65021;53.174;18.160;2024-03-06T05:46:59;101655.19;;;4.78;88.05
76229;BME280;65021;53.174;18.160;2024-03-06T05:49:28;101659.09;;;4.80;88.03
76229;BME280;65021;53.174;18.160;2024-03-06T05:51:55;101662.73;;;4.80;87.88
76229;BME280;65021;53.174;18.160;2024-03-06T05:54:22;101658.54;;;4.81;88.12
76229;BME280;65021;53.174;18.160;2024-03-06T05:56:50;101662.55;;;4.82;88.07
76229;BME280;65021;53.174;18.160;2024-03-06T05:59:18;101665.27;;;4.82;87.87
76229;BME280;65021;53.174;18.160;2024-03-06T06:01:45;101662.97;;;4.83;88.04
76229;BME280;65021;53.174;18.160;2024-03-06T06:04:12;101668.37;;;4.84;88.20
76229;BME280;65021;53.174;18.160;2024-03-06T06:06:40;101668.14;;;4.84;88.22
76229;BME280;65021;53.174;18.160;2024-03-06T06:09:07;101670.83;;;4.86;88.24
76229;BME280;65021;53.174;18.160;2024-03-06T06:11:39;101671.63;;;4.87;88.22
76229;BME280;65021;53.174;18.160;2024-03-06T06:14:06;101672.72;;;4.88;88.46
76229;BME280;65021;53.174;18.160;2024-03-06T06:16:37;101676.27;;;4.89;88.58
76229;BME280;65021;53.174;18.160;2024-03-06T06:19:04;101677.46;;;4.90;88.51
76229;BME280;65021;53.174;18.160;2024-03-06T06:21:32;101684.34;;;4.91;88.57
76229;BME280;65021;53.174;18.160;2024-03-06T06:23:59;101684.58;;;4.92;88.57
76229;BME280;65021;53.174;18.160;2024-03-06T06:26:26;101688.33;;;4.92;88.77
76229;BME280;65021;53.174;18.160;2024-03-06T06:28:53;101686.04;;;4.93;88.92
76229;BME280;65021;53.174;18.160;2024-03-06T06:31:20;101694.39;;;4.93;88.98
76229;BME280;65021;53.174;18.160;2024-03-06T06:33:47;101700.47;;;4.93;89.00
76229;BME280;65021;53.174;18.160;2024-03-06T06:36:13;101700.31;;;4.93;89.14
76229;BME280;65021;53.174;18.160;2024-03-06T06:38:40;101699.05;;;4.94;89.28
76229;BME280;65021;53.174;18.160;2024-03-06T06:41:07;101701.61;;;4.94;89.31
76229;BME280;65021;53.174;18.160;2024-03-06T06:43:34;101704.09;;;4.94;89.37
76229;BME280;65021;53.174;18.160;2024-03-06T06:46:01;101704.29;;;4.94;89.18
76229;BME280;65021;53.174;18.160;2024-03-06T06:48:28;101702.40;;;4.94;89.23
76229;BME280;65021;53.174;18.160;2024-03-06T06:50:54;101700.60;;;4.95;89.18
76229;BME280;65021;53.174;18.160;2024-03-06T06:53:21;101704.95;;;4.96;89.33
76229;BME280;65021;53.174;18.160;2024-03-06T06:55:48;101706.56;;;4.95;89.13
76229;BME280;65021;53.174;18.160;2024-03-06T06:58:15;101706.96;;;4.95;89.20
76229;BME280;65021;53.174;18.160;2024-03-06T07:00:41;101706.94;;;4.95;89.27
76229;BME280;65021;53.174;18.160;2024-03-06T07:03:08;101704.61;;;4.94;89.12
76229;BME280;65021;53.174;18.160;2024-03-06T07:05:35;101705.91;;;4.94;89.20
76229;BME280;65021;53.174;18.160;2024-03-06T07:08:02;101708.31;;;4.93;89.42
76229;BME280;65021;53.174;18.160;2024-03-06T07:10:28;101708.42;;;4.94;89.25
76229;BME280;65021;53.174;18.160;2024-03-06T07:12:55;101711.73;;;4.93;89.41
76229;BME280;65021;53.174;18.160;2024-03-06T07:15:22;101714.48;;;4.93;89.42
76229;BME280;65021;53.174;18.160;2024-03-06T07:17:49;101717.25;;;4.93;89.47
76229;BME280;65021;53.174;18.160;2024-03-06T07:20:16;101719.85;;;4.93;89.36
76229;BME280;65021;53.174;18.160;2024-03-06T07:22:43;101725.80;;;4.94;89.41
76229;BME280;65021;53.174;18.160;2024-03-06T07:25:10;101723.70;;;4.95;89.32
76229;BME280;65021;53.174;18.160;2024-03-06T07:27:37;101724.73;;;4.96;89.32
76229;BME280;65021;53.174;18.160;2024-03-06T07:30:04;101726.52;;;4.97;89.40
76229;BME280;65021;53.174;18.160;2024-03-06T07:32:32;101726.80;;;4.98;89.32
76229;BME280;65021;53.174;18.160;2024-03-06T07:34:58;101728.30;;;4.98;89.56
76229;BME280;65021;53.174;18.160;2024-03-06T07:37:25;101731.20;;;5.00;89.29
76229;BME280;65021;53.174;18.160;2024-03-06T07:39:52;101735.81;;;5.02;89.44
76229;BME280;65021;53.174;18.160;2024-03-06T07:42:19;101739.14;;;5.03;89.30
76229;BME280;65021;53.174;18.160;2024-03-06T07:44:46;101741.15;;;5.03;89.37
76229;BME280;65021;53.174;18.160;2024-03-06T07:47:12;101746.33;;;5.04;89.29
76229;BME280;65021;53.174;18.160;2024-03-06T07:49:41;101748.33;;;5.06;89.11
76229;BME280;65021;53.174;18.160;2024-03-06T07:52:07;101745.63;;;5.07;89.20
76229;BME280;65021;53.174;18.160;2024-03-06T07:54:34;101753.20;;;5.08;89.04
76229;BME280;65021;53.174;18.160;2024-03-06T07:57:00;101755.46;;;5.09;89.08
76229;BME280;65021;53.174;18.160;2024-03-06T07:59:25;101761.54;;;5.10;89.05
76229;BME280;65021;53.174;18.160;2024-03-06T08:01:51;101761.16;;;5.08;89.00
76229;BME280;65021;53.174;18.160;2024-03-06T08:04:17;101766.29;;;5.08;88.74
76229;BME280;65021;53.174;18.160;2024-03-06T08:06:43;101765.91;;;5.07;88.66
76229;BME280;65021;53.174;18.160;2024-03-06T08:09:09;101766.77;;;5.06;88.71
76229;BME280;65021;53.174;18.160;2024-03-06T08:11:35;101772.45;;;5.06;88.72
76229;BME280;65021;53.174;18.160;2024-03-06T08:14:01;101774.33;;;5.06;88.50
76229;BME280;65021;53.174;18.160;2024-03-06T08:16:30;101775.64;;;5.06;88.49
76229;BME280;65021;53.174;18.160;2024-03-06T08:18:55;101778.70;;;5.07;88.35
76229;BME280;65021;53.174;18.160;2024-03-06T08:21:22;101781.81;;;5.07;88.34
76229;BME280;65021;53.174;18.160;2024-03-06T08:23:48;101780.84;;;5.09;88.41
76229;BME280;65021;53.174;18.160;2024-03-06T08:26:14;101783.67;;;5.12;88.00
76229;BME280;65021;53.174;18.160;2024-03-06T08:28:40;101784.02;;;5.13;87.94
76229;BME280;65021;53.174;18.160;2024-03-06T08:31:06;101786.98;;;5.15;87.90
76229;BME280;65021;53.174;18.160;2024-03-06T08:33:31;101786.00;;;5.18;87.99
76229;BME280;65021;53.174;18.160;2024-03-06T08:35:57;101785.98;;;5.19;87.90
76229;BME280;65021;53.174;18.160;2024-03-06T08:38:23;101785.69;;;5.22;87.89
76229;BME280;65021;53.174;18.160;2024-03-06T08:40:49;101792.09;;;5.27;87.97
76229;BME280;65021;53.174;18.160;2024-03-06T08:43:16;101794.73;;;5.26;87.61
76229;BME280;65021;53.174;18.160;2024-03-06T08:45:42;101796.08;;;5.28;87.59
76229;BME280;65021;53.174;18.160;2024-03-06T08:48:08;101791.80;;;5.29;87.40
76229;BME280;65021;53.174;18.160;2024-03-06T08:50:35;101795.38;;;5.29;87.14
76229;BME280;65021;53.174;18.160;2024-03-06T08:53:00;101795.16;;;5.31;86.94
76229;BME280;65021;53.174;18.160;2024-03-06T08:55:27;101795.20;;;5.36;86.99
76229;BME280;65021;53.174;18.160;2024-03-06T08:57:53;101791.42;;;5.42;86.55
76229;BME280;65021;53.174;18.160;2024-03-06T09:00:20;101789.56;;;5.49;86.18
76229;BME280;65021;53.174;18.160;2024-03-06T09:02:45;101789.31;;;5.63;85.96
76229;BME280;65021;53.174;18.160;2024-03-06T09:05:12;101790.88;;;5.76;85.69
76229;BME280;65021;53.174;18.160;2024-03-06T09:07:39;101790.98;;;5.94;85.70
76229;BME280;65021;53.174;18.160;2024-03-06T09:10:08;101788.34;;;6.08;85.06
76229;BME280;65021;53.174;18.160;2024-03-06T09:12:35;101790.27;;;6.23;85.09
76229;BME280;65021;53.174;18.160;2024-03-06T09:15:01;101793.81;;;6.33;84.59
76229;BME280;65021;53.174;18.160;2024-03-06T09:17:28;101795.96;;;6.42;84.78
76229;BME280;65021;53.174;18.160;2024-03-06T09:19:54;101798.28;;;6.51;84.43
76229;BME280;65021;53.174;18.160;2024-03-06T09:22:20;101798.89;;;6.59;84.15
76229;BME280;65021;53.174;18.160;2024-03-06T09:24:46;101799.31;;;6.52;82.83
76229;BME280;65021;53.174;18.160;2024-03-06T09:27:12;101797.98;;;6.54;82.93
76229;BME280;65021;53.174;18.160;2024-03-06T09:29:39;101798.23;;;6.61;83.26
76229;BME280;65021;53.174;18.160;2024-03-06T09:32:06;101798.90;;;6.62;82.88
76229;BME280;65021;53.174;18.160;2024-03-06T09:34:31;101801.58;;;6.60;82.57
76229;BME280;65021;53.174;18.160;2024-03-06T09:36:57;101800.13;;;6.62;82.76
76229;BME280;65021;53.174;18.160;2024-03-06T09:39:23;101805.16;;;6.60;82.04
76229;BME280;65021;53.174;18.160;2024-03-06T09:41:49;101806.75;;;6.65;81.73
76229;BME280;65021;53.174;18.160;2024-03-06T09:44:16;101802.77;;;6.72;81.60
76229;BME280;65021;53.174;18.160;2024-03-06T09:46:43;101805.67;;;6.78;81.18
76229;BME280;65021;53.174;18.160;2024-03-06T09:49:19;101806.86;;;6.93;81.53
76229;BME280;65021;53.174;18.160;2024-03-06T09:51:46;101809.83;;;7.10;81.44
76229;BME280;65021;53.174;18.160;2024-03-06T09:54:13;101807.93;;;7.20;80.71
76229;BME280;65021;53.174;18.160;2024-03-06T09:56:46;101815.94;;;7.15;78.67
76229;BME280;65021;53.174;18.160;2024-03-06T09:59:12;101815.38;;;7.04;78.49
76229;BME280;65021;53.174;18.160;2024-03-06T10:01:56;101815.45;;;7.02;79.36
76229;BME280;65021;53.174;18.160;2024-03-06T10:04:23;101818.95;;;6.99;79.07
76229;BME280;65021;53.174;18.160;2024-03-06T10:06:53;101823.74;;;7.01;79.45
76229;BME280;65021;53.174;18.160;2024-03-06T10:09:23;101826.27;;;7.03;78.94
76229;BME280;65021;53.174;18.160;2024-03-06T10:11:50;101825.14;;;7.00;78.47
76229;BME280;65021;53.174;18.160;2024-03-06T10:14:18;101825.39;;;6.99;79.01
76229;BME280;65021;53.174;18.160;2024-03-06T10:16:57;101827.21;;;6.97;79.05
76229;BME280;65021;53.174;18.160;2024-03-06T10:19:25;101827.30;;;7.02;79.59
76229;BME280;65021;53.174;18.160;2024-03-06T10:21:56;101833.84;;;7.03;79.25
76229;BME280;65021;53.174;18.160;2024-03-06T10:24:27;101832.60;;;7.03;79.20
76229;BME280;65021;53.174;18.160;2024-03-06T10:26:57;101834.30;;;6.95;78.92
76229;BME280;65021;53.174;18.160;2024-03-06T10:29:28;101837.63;;;6.90;79.25
76229;BME280;65021;53.174;18.160;2024-03-06T10:31:56;101839.60;;;6.87;79.45
76229;BME280;65021;53.174;18.160;2024-03-06T10:34:27;101836.69;;;6.83;79.19
76229;BME280;65021;53.174;18.160;2024-03-06T10:36:57;101835.69;;;6.81;79.29
76229;BME280;65021;53.174;18.160;2024-03-06T10:39:23;101834.09;;;6.76;78.99
76229;BME280;65021;53.174;18.160;2024-03-06T10:41:53;101834.27;;;6.74;78.97
76229;BME280;65021;53.174;18.160;2024-03-06T10:44:24;101834.11;;;6.75;79.20
76229;BME280;65021;53.174;18.160;2024-03-06T10:47:05;101835.56;;;6.85;79.64
76229;BME280;65021;53.174;18.160;2024-03-06T10:49:32;101840.16;;;6.96;79.37
76229;BME280;65021;53.174;18.160;2024-03-06T10:52:04;101837.90;;;7.04;79.03
76229;BME280;65021;53.174;18.160;2024-03-06T10:54:33;101843.09;;;7.04;79.06
76229;BME280;65021;53.174;18.160;2024-03-06T10:57:04;101842.76;;;6.95;78.61
76229;BME280;65021;53.174;18.160;2024-03-06T10:59:31;101844.32;;;6.84;78.31
76229;BME280;65021;53.174;18.160;2024-03-06T11:01:58;101843.04;;;6.76;78.06
76229;BME280;65021;53.174;18.160;2024-03-06T11:04:27;101845.37;;;6.75;78.51
76229;BME280;65021;53.174;18.160;2024-03-06T11:07:00;101844.14;;;6.74;78.72
76229;BME280;65021;53.174;18.160;2024-03-06T11:09:28;101847.87;;;6.69;78.35
76229;BME280;65021;53.174;18.160;2024-03-06T11:11:57;101846.22;;;6.60;77.92
76229;BME280;65021;53.174;18.160;2024-03-06T11:14:24;101847.19;;;6.65;77.97
76229;BME280;65021;53.174;18.160;2024-03-06T11:17:09;101850.84;;;6.75;78.47
76229;BME280;65021;53.174;18.160;2024-03-06T11:28:15;101855.09;;;7.06;75.64
76229;BME280;65021;53.174;18.160;2024-03-06T11:30:45;101854.02;;;7.07;74.83
76229;BME280;65021;53.174;18.160;2024-03-06T11:33:14;101854.10;;;7.08;74.69
76229;BME280;65021;53.174;18.160;2024-03-06T11:35:42;101855.92;;;7.16;75.79
76229;BME280;65021;53.174;18.160;2024-03-06T11:38:17;101850.31;;;7.24;76.03
76229;BME280;65021;53.174;18.160;2024-03-06T11:40:43;101853.93;;;7.32;76.35
76229;BME280;65021;53.174;18.160;2024-03-06T11:43:27;101852.80;;;7.36;75.35
76229;BME280;65021;53.174;18.160;2024-03-06T11:45:53;101859.91;;;7.47;75.24
76229;BME280;65021;53.174;18.160;2024-03-06T11:48:19;101856.85;;;7.40;72.73
76229;BME280;65021;53.174;18.160;2024-03-06T11:50:47;101862.30;;;7.39;72.33
76229;BME280;65021;53.174;18.160;2024-03-06T11:53:14;101858.80;;;7.33;71.83
76229;BME280;65021;53.174;18.160;2024-03-06T11:55:40;101861.58;;;7.32;72.41
76229;BME280;65021;53.174;18.160;2024-03-06T11:58:05;101858.67;;;7.35;72.87
76229;BME280;65021;53.174;18.160;2024-03-06T12:00:33;101864.52;;;7.39;73.38
76229;BME280;65021;53.174;18.160;2024-03-06T12:02:59;101861.79;;;7.36;73.28
76229;BME280;65021;53.174;18.160;2024-03-06T12:05:24;101862.61;;;7.37;73.19
76229;BME280;65021;53.174;18.160;2024-03-06T12:07:52;101862.88;;;7.33;73.80
76229;BME280;65021;53.174;18.160;2024-03-06T12:10:18;101868.29;;;7.31;73.70
76229;BME280;65021;53.174;18.160;2024-03-06T12:12:44;101872.64;;;7.24;73.21
76229;BME280;65021;53.174;18.160;2024-03-06T12:15:11;101873.21;;;7.19;73.26
76229;BME280;65021;53.174;18.160;2024-03-06T12:18:03;101875.50;;;7.20;73.50
76229;BME280;65021;53.174;18.160;2024-03-06T12:20:31;101875.12;;;7.20;73.80
76229;BME280;65021;53.174;18.160;2024-03-06T12:22:57;101869.56;;;7.17;73.06
76229;BME280;65021;53.174;18.160;2024-03-06T12:25:26;101872.70;;;7.19;73.63
76229;BME280;65021;53.174;18.160;2024-03-06T12:28:06;101873.09;;;7.24;74.19
76229;BME280;65021;53.174;18.160;2024-03-06T12:30:41;101865.91;;;7.25;73.15
76229;BME280;65021;53.174;18.160;2024-03-06T12:33:07;101866.29;;;7.26;72.11
76229;BME280;65021;53.174;18.160;2024-03-06T12:35:33;101868.73;;;7.32;71.95
76229;BME280;65021;53.174;18.160;2024-03-06T12:37:59;101869.70;;;7.36;71.70
76229;BME280;65021;53.174;18.160;2024-03-06T12:40:25;101871.47;;;7.46;73.01
76229;BME280;65021;53.174;18.160;2024-03-06T12:42:50;101871.89;;;7.53;72.75
76229;BME280;65021;53.174;18.160;2024-03-06T12:45:18;101878.16;;;7.57;72.22
76229;BME280;65021;53.174;18.160;2024-03-06T12:47:46;101874.23;;;7.57;71.70
76229;BME280;65021;53.174;18.160;2024-03-06T12:50:15;101873.89;;;7.56;71.49
76229;BME280;65021;53.174;18.160;2024-03-06T12:52:41;101871.33;;;7.51;71.02
76229;BME280;65021;53.174;18.160;2024-03-06T12:55:10;101869.04;;;7.51;71.06
76229;BME280;65021;53.174;18.160;2024-03-06T12:57:36;101872.33;;;7.52;71.32
76229;BME280;65021;53.174;18.160;2024-03-06T13:00:02;101874.64;;;7.57;71.98
76229;BME280;65021;53.174;18.160;2024-03-06T13:02:28;101874.36;;;7.57;70.78